TimeEDT,TemperatureF,Dew PointF,Humidity,Sea Level PressureIn,VisibilityMPH,Wind Direction,Wind SpeedMPH,Gust SpeedMPH,PrecipitationIn,Events,Conditions,WindDirDegrees,DateUTC
12:56 AM,37.9,16.0,41,30.00,10.0,NW,20.7,31.1,N/A,,Clear,310,2013-04-06 04:56:00
1:56 AM,37.0,15.1,41,30.01,10.0,NW,13.8,-,N/A,,Clear,310,2013-04-06 05:56:00
2:56 AM,36.0,15.1,43,30.03,10.0,NW,15.0,24.2,N/A,,Clear,310,2013-04-06 06:56:00
3:56 AM,35.1,16.0,46,30.06,10.0,NW,13.8,21.9,N/A,,Clear,310,2013-04-06 07:56:00
4:56 AM,34.0,16.0,48,30.09,10.0,NW,9.2,-,N/A,,Clear,310,2013-04-06 08:56:00
5:56 AM,33.1,16.0,50,30.13,10.0,NNW,8.1,-,N/A,,Clear,330,2013-04-06 09:56:00
6:56 AM,33.1,17.1,52,30.17,10.0,North,8.1,-,N/A,,Clear,350,2013-04-06 10:56:00
7:56 AM,35.1,10.9,37,30.21,10.0,North,15.0,-,N/A,,Clear,350,2013-04-06 11:56:00
8:56 AM,36.0,10.0,34,30.25,10.0,North,16.1,21.9,N/A,,Clear,360,2013-04-06 12:56:00
9:56 AM,37.9,7.0,28,30.27,10.0,North,18.4,23.0,N/A,,Clear,360,2013-04-06 13:56:00
10:56 AM,39.9,7.0,26,30.28,10.0,NW,9.2,-,N/A,,Clear,310,2013-04-06 14:56:00
11:56 AM,42.1,3.0,20,30.28,10.0,NW,10.4,19.6,N/A,,Clear,310,2013-04-06 15:56:00
12:56 PM,45.0,3.9,18,30.27,10.0,NW,13.8,20.7,N/A,,Clear,320,2013-04-06 16:56:00
1:56 PM,46.9,3.9,17,30.27,10.0,NNW,5.8,16.1,N/A,,Clear,340,2013-04-06 17:56:00
2:56 PM,46.9,3.0,16,30.26,10.0,Variable,5.8,-,N/A,,Clear,0,2013-04-06 18:56:00
3:56 PM,48.9,3.9,16,30.25,10.0,WNW,9.2,-,N/A,,Clear,300,2013-04-06 19:56:00
4:56 PM,50.0,3.9,15,30.26,10.0,NW,4.6,-,N/A,,Clear,320,2013-04-06 20:56:00
5:56 PM,50.0,3.9,15,30.27,10.0,NW,6.9,-,N/A,,Clear,310,2013-04-06 21:56:00
6:56 PM,46.0,16.0,30,30.29,10.0,South,8.1,-,N/A,,Clear,170,2013-04-06 22:56:00
7:56 PM,42.1,19.9,41,30.30,10.0,South,6.9,-,N/A,,Clear,180,2013-04-06 23:56:00
8:56 PM,39.0,24.1,55,30.31,10.0,South,3.5,-,N/A,,Clear,170,2013-04-07 00:56:00
9:56 PM,37.0,24.1,59,30.31,10.0,SSE,4.6,-,N/A,,Clear,160,2013-04-07 01:56:00
10:56 PM,35.1,24.1,64,30.32,10.0,South,3.5,-,N/A,,Clear,170,2013-04-07 02:56:00
11:56 PM,34.0,26.1,73,30.31,10.0,SSE,4.6,-,N/A,,Clear,150,2013-04-07 03:56:00